Lumberton, New Mexico
Current Conditions -  °F | °C
As of 9:53 AM on Friday 28 Nov 2014 (Local Time) from KDRO Reporting Station
Clear Clear  
Wind Chill: 41°   Ceiling: Unl
Heat Index: 41°   Visibility: 10mi
Dew Point: 24°   Wind: 0mph
Humidity: 51%   Direction: NA
Pressure: 30.29"   Gusts: NA
Location:  36.6026°N, 107.231°W
Report Text: KDRO 281653Z AUTO 00000KT 10SM CLR 05/M04 A3029 RMK AO2 SLP266 T00501044
Loading
Personal Weather Stations






























Interactive Weather Map New forecast layout! Learn more

10-Day Weather Forecast

Advertisements
Track Severe Weather on mobile